createdAt,value
2017-01-11T00:00:08.550Z,49.91
2017-01-11T00:01:18.316Z,50.03
2017-01-11T00:02:28.473Z,50
2017-01-11T00:03:38.199Z,50.2
2017-01-11T00:04:47.928Z,50.29
2017-01-11T00:05:58.089Z,50.1
2017-01-11T00:07:08.738Z,50.22
2017-01-11T00:08:18.459Z,49.81
2017-01-11T00:09:28.181Z,50.22
2017-01-11T00:10:38.342Z,50.2
2017-01-11T00:11:48.509Z,49.43
2017-01-11T00:12:58.280Z,49.62
2017-01-11T00:14:08.438Z,49.45
2017-01-11T00:15:17.723Z,49.71
2017-01-11T00:16:27.872Z,49.62
2017-01-11T00:17:37.593Z,49.62
2017-01-11T00:20:29.695Z,49.62
2017-01-11T00:21:38.929Z,49.45
2017-01-11T00:22:48.601Z,49.55
2017-01-11T00:23:58.279Z,49.52
2017-01-11T00:25:17.780Z,50.22
2017-01-11T00:26:28.357Z,49.91
2017-01-11T00:27:38.894Z,49.91
2017-01-11T00:28:48.167Z,49.52
2017-01-11T00:29:58.340Z,50.2
2017-01-11T00:31:08.498Z,49.81
2017-01-11T00:32:18.267Z,49.91
2017-01-11T00:33:27.544Z,50.1
2017-01-11T00:34:37.265Z,50.2
2017-01-11T00:35:47.422Z,50.48
2017-01-11T00:36:56.703Z,50.58
2017-01-11T00:38:06.472Z,50.58
2017-01-11T00:39:16.185Z,50.38
2017-01-11T00:40:25.898Z,50.1
2017-01-11T00:41:35.167Z,50.48
2017-01-11T00:42:45.765Z,50.1
2017-01-11T00:43:55.534Z,50.38
2017-01-11T00:45:24.935Z,50.2
2017-01-11T00:46:36.180Z,50.58
2017-01-11T00:47:46.793Z,50.22
2017-01-11T00:48:56.519Z,50.38
2017-01-11T00:50:06.196Z,50.48
2017-01-11T00:51:35.070Z,50.48
2017-01-11T00:52:45.611Z,50.58
2017-01-11T00:53:54.936Z,50.58
2017-01-11T00:55:05.101Z,50.38
2017-01-11T00:56:14.387Z,50.67
2017-01-11T00:57:24.112Z,51.15
2017-01-11T00:58:33.833Z,50.96
2017-01-11T00:59:43.598Z,50.87
2017-01-11T01:00:53.315Z,50
2017-01-11T01:02:02.596Z,50.41
2017-01-11T01:03:12.322Z,50.48
2017-01-11T01:04:22.927Z,50.29
2017-01-11T01:05:33.572Z,50.48
2017-01-11T01:06:43.293Z,50.48
2017-01-11T01:07:53.006Z,50.2
2017-01-11T01:09:02.752Z,50.2
2017-01-11T01:10:12.913Z,51.06
2017-01-11T01:11:23.586Z,50.67
2017-01-11T01:12:33.316Z,50.87
2017-01-11T01:13:42.601Z,50.67
2017-01-11T01:14:53.194Z,50.96
2017-01-11T01:16:03.383Z,50.87
2017-01-11T01:17:12.712Z,50.87
2017-01-11T01:18:22.435Z,50.77
2017-01-11T01:19:31.715Z,50.48
2017-01-11T01:20:41.868Z,50.96
2017-01-11T01:21:51.581Z,50.77
2017-01-11T01:23:00.910Z,50.87
2017-01-11T01:24:11.071Z,50.77
2017-01-11T01:25:20.801Z,50.67
2017-01-11T01:26:30.522Z,50.67
2017-01-11T01:27:39.799Z,50.77
2017-01-11T01:28:49.569Z,50.67
2017-01-11T01:29:58.850Z,50.77
2017-01-11T01:31:09.447Z,50.77
2017-01-11T01:32:18.724Z,50.77
2017-01-11T01:33:28.005Z,50.67
2017-01-11T01:34:37.330Z,51.06
2017-01-11T01:35:47.483Z,50.77
2017-01-11T01:36:57.641Z,50.67
2017-01-11T01:38:06.926Z,50.77
2017-01-11T01:39:16.643Z,50.67
2017-01-11T01:40:26.420Z,50.77
2017-01-11T01:41:36.142Z,50.67
2017-01-11T01:42:45.847Z,50.87
2017-01-11T01:43:55.576Z,50.77
2017-01-11T01:45:05.726Z,50.58
2017-01-11T01:46:15.935Z,50.87
2017-01-11T01:47:25.648Z,50.87
2017-01-11T01:48:35.370Z,50.87
2017-01-11T01:49:44.642Z,50.67
2017-01-11T01:50:53.919Z,50.96
2017-01-11T01:52:03.245Z,50.77
2017-01-11T01:53:12.521Z,50.77
2017-01-11T01:54:22.267Z,50.77
2017-01-11T01:55:31.988Z,50.77
2017-01-11T01:56:41.705Z,50.67
2017-01-11T01:57:51.475Z,50.77
2017-01-11T01:59:00.755Z,50.77
2017-01-11T02:00:10.032Z,50.67
2017-01-11T02:01:19.757Z,50.77
2017-01-11T02:02:29.030Z,50.48
2017-01-11T02:03:38.795Z,50.67
2017-01-11T02:04:48.516Z,50.67
2017-01-11T02:05:58.233Z,50.87
2017-01-11T02:07:08.398Z,50.87
2017-01-11T02:08:18.559Z,50.67
2017-01-11T02:09:28.760Z,50.87
2017-01-11T02:10:38.914Z,51.15
2017-01-11T02:11:48.637Z,50.87
2017-01-11T02:12:59.242Z,51.15
2017-01-11T02:14:08.960Z,50.87
2017-01-11T02:15:18.313Z,50.96
2017-01-11T02:16:28.029Z,50.96
2017-01-11T02:17:38.202Z,50.96
2017-01-11T02:18:47.916Z,51.25
2017-01-11T02:19:57.632Z,51.25
2017-01-11T02:21:07.402Z,51.34
2017-01-11T02:22:18.002Z,51.34
2017-01-11T02:23:27.724Z,51.25
2017-01-11T02:24:37.441Z,51.73
2017-01-11T02:25:47.602Z,51.44
2017-01-11T02:26:57.363Z,51.82
2017-01-11T02:28:07.091Z,51.63
2017-01-11T02:29:16.817Z,51.54
2017-01-11T02:30:26.982Z,51.34
2017-01-11T02:31:37.595Z,51.44
2017-01-11T02:32:46.923Z,51.34
2017-01-11T02:33:56.645Z,51.73
2017-01-11T02:35:06.362Z,51.92
2017-01-11T02:36:15.639Z,52.01
2017-01-11T02:37:24.920Z,51.82
2017-01-11T02:38:34.685Z,52.11
2017-01-11T02:39:43.961Z,51.61
2017-01-11T02:40:53.236Z,51.63
2017-01-11T02:42:02.955Z,52.01
2017-01-11T02:43:12.228Z,51.79
2017-01-11T02:44:21.986Z,51.73
2017-01-11T02:45:31.263Z,51.44
2017-01-11T02:46:42.300Z,51.54
2017-01-11T02:47:52.033Z,51.51
2017-01-11T02:49:01.782Z,51.42
2017-01-11T02:50:11.695Z,51.61
2017-01-11T02:51:21.400Z,52.09
2017-01-11T02:52:31.549Z,51.79
2017-01-11T02:53:40.829Z,51.89
2017-01-11T02:54:50.100Z,52.11
2017-01-11T02:55:59.437Z,51.89
2017-01-11T02:57:09.602Z,51.99
2017-01-11T02:58:19.312Z,52.56
2017-01-11T02:59:29.025Z,52.01
2017-01-11T03:00:39.199Z,52.28
2017-01-11T03:01:48.540Z,52.56
2017-01-11T03:02:58.697Z,52.28
2017-01-11T03:04:07.978Z,52.09
2017-01-11T03:05:18.139Z,52.37
2017-01-11T03:06:27.416Z,52.28
2017-01-11T03:07:38.074Z,52.28
2017-01-11T03:08:47.791Z,52.66
2017-01-11T03:09:57.500Z,52.18
2017-01-11T03:11:07.210Z,52.47
2017-01-11T03:12:16.936Z,52.47
2017-01-11T03:13:26.264Z,52.28
2017-01-11T03:14:35.979Z,52.18
2017-01-11T03:15:45.719Z,52.37
2017-01-11T03:16:55.024Z,52.47
2017-01-11T03:18:04.741Z,52.28
2017-01-11T03:19:14.510Z,52.09
2017-01-11T03:20:23.795Z,52.47
2017-01-11T03:21:33.068Z,52.66
2017-01-11T03:22:42.790Z,52.47
2017-01-11T03:23:52.958Z,52.18
2017-01-11T03:25:02.732Z,52.56
2017-01-11T03:26:12.881Z,52.18
2017-01-11T03:27:23.035Z,52.09
2017-01-11T03:28:32.316Z,52.09
2017-01-11T03:29:42.041Z,52.28
2017-01-11T03:30:51.811Z,52.09
2017-01-11T03:32:01.528Z,52.56
2017-01-11T03:33:11.689Z,52.18
2017-01-11T03:34:21.419Z,52.18
2017-01-11T03:35:31.584Z,52.18
2017-01-11T03:36:40.910Z,52.47
2017-01-11T03:37:50.187Z,52.28
2017-01-11T03:39:00.344Z,52.37
2017-01-11T03:40:10.053Z,52.56
2017-01-11T03:41:20.203Z,52.56
2017-01-11T03:42:29.528Z,52.56
2017-01-11T03:43:40.129Z,52.56
2017-01-11T03:44:49.843Z,52.47
2017-01-11T03:45:59.124Z,52.66
2017-01-11T03:47:08.401Z,52.56
2017-01-11T03:48:18.170Z,52.37
2017-01-11T03:49:27.892Z,52.47
2017-01-11T03:50:37.617Z,52.18
2017-01-11T03:51:47.762Z,52.18
2017-01-11T03:52:57.483Z,52.85
2017-01-11T03:54:07.245Z,52.95
2017-01-11T03:55:16.967Z,52.95
2017-01-11T03:56:26.267Z,53.14
2017-01-11T03:57:36.425Z,53.23
2017-01-11T03:58:45.702Z,52.56
2017-01-11T03:59:55.035Z,53.04
2017-01-11T04:01:04.313Z,52.66
2017-01-11T04:02:14.482Z,52.66
2017-01-11T04:03:24.203Z,52.95
2017-01-11T04:04:34.381Z,52.56
2017-01-11T04:05:44.142Z,52.56
2017-01-11T04:06:54.739Z,53.14
2017-01-11T04:08:04.497Z,52.47
2017-01-11T04:09:14.661Z,52.95
2017-01-11T04:10:23.939Z,52.63
2017-01-11T04:11:33.269Z,53.23
2017-01-11T04:12:42.994Z,52.85
2017-01-11T04:13:52.735Z,53.04
2017-01-11T04:15:02.452Z,52.75
2017-01-11T04:16:11.730Z,52.66
2017-01-11T04:17:21.927Z,53.33
2017-01-11T04:18:31.204Z,52.66
2017-01-11T04:19:41.802Z,52.75
2017-01-11T04:20:52.435Z,52.28
2017-01-11T04:22:03.024Z,52.47
2017-01-11T04:23:12.793Z,52.75
2017-01-11T04:24:22.511Z,52.63
2017-01-11T04:25:32.232Z,53.02
2017-01-11T04:26:41.945Z,53.04
2017-01-11T04:27:51.667Z,52.92
2017-01-11T04:29:01.432Z,52.63
2017-01-11T04:30:11.150Z,52.66
2017-01-11T04:31:20.870Z,52.83
2017-01-11T04:32:30.584Z,52.73
2017-01-11T04:33:39.865Z,52.73
2017-01-11T04:34:49.631Z,52.34
2017-01-11T04:35:58.904Z,52.15
2017-01-11T04:37:08.173Z,52.34
2017-01-11T04:38:17.446Z,52.34
2017-01-11T04:39:27.167Z,52.34
2017-01-11T04:40:36.493Z,52.73
2017-01-11T04:41:46.642Z,52.44
2017-01-11T04:42:56.387Z,52.54
2017-01-11T04:44:06.100Z,52.54
2017-01-11T04:45:15.813Z,52.54
2017-01-11T04:46:25.726Z,52.73
2017-01-11T04:47:35.888Z,52.44
2017-01-11T04:48:45.605Z,52.54
2017-01-11T04:49:55.331Z,52.44
2017-01-11T04:51:04.611Z,52.44
2017-01-11T04:52:14.809Z,52.44
2017-01-11T04:53:24.522Z,52.54
2017-01-11T04:54:34.682Z,52.06
2017-01-11T04:55:44.400Z,52.34
2017-01-11T04:56:54.994Z,52.25
2017-01-11T04:58:04.767Z,52.63
2017-01-11T04:59:14.044Z,52.34
2017-01-11T05:00:24.201Z,52.25
2017-01-11T05:01:33.918Z,52.83
2017-01-11T05:02:43.636Z,52.92
2017-01-11T05:03:53.409Z,53.11
2017-01-11T05:05:04.006Z,52.92
2017-01-11T05:06:13.723Z,53.11
2017-01-11T05:07:23.009Z,52.92
2017-01-11T05:08:33.602Z,53.11
2017-01-11T05:09:43.371Z,52.92
2017-01-11T05:10:53.528Z,53.02
2017-01-11T05:12:03.249Z,52.92
2017-01-11T05:13:12.974Z,53.3
2017-01-11T05:14:22.247Z,52.92
2017-01-11T05:15:32.012Z,53.02
2017-01-11T05:16:42.610Z,53.02
2017-01-11T05:17:52.327Z,52.83
2017-01-11T05:19:02.040Z,52.92
2017-01-11T05:20:11.753Z,53.3
2017-01-11T05:21:21.950Z,53.02
2017-01-11T05:22:31.674Z,52.92
2017-01-11T05:23:41.405Z,52.83
2017-01-11T05:24:51.578Z,52.83
2017-01-11T05:26:00.855Z,53.11
2017-01-11T05:27:10.624Z,53.11
2017-01-11T05:28:20.345Z,53.3
2017-01-11T05:29:29.622Z,53.4
2017-01-11T05:30:39.332Z,53.3
2017-01-11T05:31:49.049Z,53.2
2017-01-11T05:32:58.374Z,53.3
2017-01-11T05:34:08.971Z,53.4
2017-01-11T05:35:18.688Z,53.2
2017-01-11T05:36:27.969Z,53.3
2017-01-11T05:37:38.123Z,53.4
2017-01-11T05:38:47.919Z,53.2
2017-01-11T05:39:57.196Z,53.2
2017-01-11T05:41:07.353Z,53.49
2017-01-11T05:42:16.643Z,53.49
2017-01-11T05:43:25.932Z,53.59
2017-01-11T05:44:35.257Z,53.49
2017-01-11T05:45:45.862Z,53.59
2017-01-11T05:46:55.583Z,53.59
2017-01-11T05:48:04.856Z,53.47
2017-01-11T05:49:14.586Z,53.47
2017-01-11T05:50:24.790Z,53.59
2017-01-11T05:51:34.500Z,53.18
2017-01-11T05:52:44.217Z,53.56
2017-01-11T05:53:53.938Z,53.56
2017-01-11T05:55:04.099Z,53.56
2017-01-11T05:56:13.420Z,53.2
2017-01-11T05:57:22.693Z,53.66
2017-01-11T05:58:32.866Z,53.28
2017-01-11T05:59:42.168Z,53.59
2017-01-11T06:00:52.316Z,53.66
2017-01-11T06:02:02.086Z,53.94
2017-01-11T06:03:11.362Z,53.85
2017-01-11T06:04:20.640Z,53.78
2017-01-11T06:05:30.353Z,53.78
2017-01-11T06:06:40.066Z,53.94
2017-01-11T06:07:49.835Z,53.66
2017-01-11T06:08:59.108Z,53.94
2017-01-11T06:10:08.385Z,53.97
2017-01-11T06:11:17.658Z,53.85
2017-01-11T06:12:27.379Z,53.69
2017-01-11T06:13:37.141Z,53.66
2017-01-11T06:14:46.878Z,53.85
2017-01-11T06:15:56.155Z,54.04
2017-01-11T06:17:06.752Z,53.94
2017-01-11T06:18:16.465Z,53.85
2017-01-11T06:19:26.242Z,53.85
2017-01-11T06:20:35.959Z,53.66
2017-01-11T06:21:45.681Z,53.75
2017-01-11T06:22:55.830Z,54.04
2017-01-11T06:24:05.563Z,54.04
2017-01-11T06:25:15.792Z,54.14
2017-01-11T06:26:25.077Z,54.14
2017-01-11T06:27:34.794Z,54.04
2017-01-11T06:28:44.075Z,54.23
2017-01-11T06:29:53.796Z,54.23
2017-01-11T06:31:03.570Z,54.14
2017-01-11T06:32:13.283Z,54.23
2017-01-11T06:33:22.556Z,54.14
2017-01-11T06:34:32.267Z,54.23
2017-01-11T06:35:42.434Z,54.04
2017-01-11T06:36:53.071Z,53.94
2017-01-11T06:38:02.800Z,53.85
2017-01-11T06:39:12.078Z,54.04
2017-01-11T06:40:21.791Z,53.85
2017-01-11T06:41:31.499Z,53.94
2017-01-11T06:42:41.273Z,53.94
2017-01-11T06:43:50.982Z,53.94
2017-01-11T06:45:00.687Z,54.33
2017-01-11T06:46:09.968Z,54.04
2017-01-11T06:47:20.122Z,54.23
2017-01-11T06:48:30.319Z,54.23
2017-01-11T06:49:40.904Z,53.85
2017-01-11T06:50:50.180Z,53.75
2017-01-11T06:51:59.898Z,53.75
2017-01-11T06:53:09.203Z,54.04
2017-01-11T06:54:20.284Z,53.75
2017-01-11T06:55:29.561Z,54.14
2017-01-11T06:56:38.838Z,53.66
2017-01-11T06:57:48.127Z,53.85
2017-01-11T06:58:57.404Z,53.85
2017-01-11T07:00:07.166Z,53.75
2017-01-11T07:01:16.450Z,53.66
2017-01-11T07:02:27.044Z,53.66
2017-01-11T07:03:36.761Z,54.04
2017-01-11T07:04:46.034Z,53.75
2017-01-11T07:05:55.359Z,53.85
2017-01-11T07:07:05.072Z,53.66
2017-01-11T07:08:15.229Z,54.04
2017-01-11T07:09:24.511Z,53.56
2017-01-11T07:10:33.812Z,54.04
2017-01-11T07:11:44.017Z,54.23
2017-01-11T07:12:54.174Z,54.23
2017-01-11T07:14:04.327Z,54.23
2017-01-11T07:15:14.044Z,54.14
2017-01-11T07:16:23.316Z,54.33
2017-01-11T07:17:33.967Z,53.85
2017-01-11T07:18:43.684Z,53.94
2017-01-11T07:19:54.285Z,53.85
2017-01-11T07:21:04.438Z,53.85
2017-01-11T07:22:14.163Z,53.85
2017-01-11T07:23:23.932Z,54.14
2017-01-11T07:24:33.657Z,54.14
2017-01-11T07:25:43.807Z,54.14
2017-01-11T07:26:53.529Z,54.23
2017-01-11T07:28:03.248Z,54.14
2017-01-11T07:29:13.458Z,54.23
2017-01-11T07:30:23.179Z,54.14
2017-01-11T07:31:32.892Z,54.33
2017-01-11T07:32:43.053Z,54.43
2017-01-11T07:33:52.335Z,54.23
2017-01-11T07:35:02.131Z,54.23
2017-01-11T07:36:12.724Z,54.23
2017-01-11T07:37:22.002Z,54.43
2017-01-11T07:38:31.291Z,54.23
2017-01-11T07:39:40.564Z,54.3
2017-01-11T07:40:50.765Z,54.33
2017-01-11T07:42:01.358Z,54.33
2017-01-11T07:43:11.103Z,54.23
2017-01-11T07:44:20.397Z,54.04
2017-01-11T07:45:30.106Z,54.52
2017-01-11T07:46:39.431Z,54.23
2017-01-11T07:47:48.716Z,54.23
2017-01-11T07:48:58.877Z,54.52
2017-01-11T07:50:10.342Z,54.33
2017-01-11T07:51:19.623Z,54.33
2017-01-11T07:52:29.389Z,54.33
2017-01-11T07:53:39.110Z,54.33
2017-01-11T07:54:48.395Z,54.33
2017-01-11T07:55:57.668Z,54.23
2017-01-11T07:57:07.405Z,54.52
2017-01-11T07:58:16.730Z,54.33
2017-01-11T07:59:26.451Z,54.23
2017-01-11T08:00:36.600Z,54.33
2017-01-11T08:01:46.762Z,54.33
2017-01-11T08:02:56.475Z,54.8
2017-01-11T08:04:06.680Z,54.9
2017-01-11T08:05:16.401Z,54.71
2017-01-11T08:06:26.990Z,54.8
2017-01-11T08:07:36.720Z,54.8
2017-01-11T08:08:46.437Z,54.8
2017-01-11T08:09:55.915Z,55.1
2017-01-11T08:11:05.195Z,55.29
2017-01-11T08:12:14.925Z,54.61
2017-01-11T08:13:25.089Z,54.8
2017-01-11T08:14:36.130Z,54.52
2017-01-11T08:15:45.911Z,53.94
2017-01-11T08:16:56.116Z,54.43
2017-01-11T08:18:05.390Z,54.3
2017-01-11T08:19:15.115Z,54.04
2017-01-11T08:20:24.832Z,54.23
2017-01-11T08:21:35.033Z,54.61
2017-01-11T08:22:44.758Z,53.85
2017-01-11T08:23:54.503Z,53.75
2017-01-11T08:25:04.241Z,53.75
2017-01-11T08:26:13.958Z,53.75
2017-01-11T08:27:23.723Z,53.66
2017-01-11T08:28:33.000Z,54.14
2017-01-11T08:29:42.281Z,54.14
2017-01-11T08:30:52.453Z,54.33
2017-01-11T08:32:02.163Z,54.23
2017-01-11T08:33:11.493Z,52.7
2017-01-11T08:34:20.770Z,51.43
2017-01-11T08:35:30.055Z,50.57
2017-01-11T08:36:39.328Z,49.23
2017-01-11T08:37:49.925Z,49.4
2017-01-11T08:38:59.695Z,49.3
2017-01-11T08:40:10.300Z,48.64
2017-01-11T08:41:20.021Z,48.93
2017-01-11T08:42:29.734Z,48.54
2017-01-11T08:43:39.888Z,48.35
2017-01-11T08:44:50.088Z,47.39
2017-01-11T08:45:59.365Z,46.63
2017-01-11T08:47:08.643Z,46.92
2017-01-11T08:48:18.352Z,46.44
2017-01-11T08:49:28.069Z,46.06
2017-01-11T08:50:38.270Z,46.42
2017-01-11T08:51:48.419Z,46.42
2017-01-11T08:52:57.698Z,45.75
2017-01-11T08:54:07.426Z,45.46
2017-01-11T08:55:17.587Z,45.56
2017-01-11T08:56:27.784Z,46.22
2017-01-11T08:57:37.497Z,46.42
2017-01-11T08:58:46.774Z,46.8
2017-01-11T08:59:56.508Z,46.89
2017-01-11T09:01:05.780Z,46.32
2017-01-11T09:02:15.546Z,47.08
2017-01-11T09:03:26.135Z,48.04
2017-01-11T09:04:36.284Z,49.11
2017-01-11T09:05:45.561Z,49.98
2017-01-11T09:06:54.855Z,49.69
2017-01-11T09:08:04.184Z,50.16
2017-01-11T09:09:14.785Z,50.09
2017-01-11T09:10:25.370Z,50.76
2017-01-11T09:11:34.651Z,50.89
2017-01-11T09:12:43.957Z,50.98
2017-01-11T09:13:54.169Z,50.89
2017-01-11T09:15:03.883Z,50.89
2017-01-11T09:16:14.044Z,50.6
2017-01-11T09:17:23.325Z,50.15
2017-01-11T09:18:33.046Z,50.43
2017-01-11T09:19:43.251Z,50.34
2017-01-11T09:20:52.972Z,50.56
2017-01-11T09:22:02.246Z,50.07
2017-01-11T09:23:12.404Z,49.98
2017-01-11T09:24:22.568Z,50.07
2017-01-11T09:25:31.893Z,49.79
2017-01-11T09:26:42.498Z,49.69
2017-01-11T09:27:51.772Z,49.98
2017-01-11T09:29:01.933Z,50.1
2017-01-11T09:30:11.662Z,49.43
2017-01-11T09:31:21.871Z,49.71
2017-01-11T09:32:31.152Z,49.43
2017-01-11T09:33:40.430Z,48.95
2017-01-11T09:34:49.739Z,49.43
2017-01-11T09:35:59.452Z,48.85
2017-01-11T09:37:09.245Z,48.78
2017-01-11T09:38:18.526Z,48.49
2017-01-11T09:39:29.145Z,48.69
2017-01-11T09:40:38.856Z,48.59
2017-01-11T09:41:48.574Z,48.49
2017-01-11T09:42:58.787Z,48.69
2017-01-11T09:44:08.072Z,48.69
2017-01-11T09:45:17.354Z,48.97
2017-01-11T09:46:27.498Z,48.3
2017-01-11T09:47:37.215Z,48.43
2017-01-11T09:48:46.545Z,48.4
2017-01-11T09:49:56.258Z,48.52
2017-01-11T09:51:05.975Z,48.04
2017-01-11T09:52:15.692Z,48.43
2017-01-11T09:53:25.402Z,48.43
2017-01-11T09:54:35.170Z,48.33
2017-01-11T09:55:44.472Z,48.43
2017-01-11T09:56:54.193Z,48.04
2017-01-11T09:58:03.898Z,47.37
2017-01-11T09:59:13.179Z,47.56
2017-01-11T10:00:22.500Z,47.75
2017-01-11T10:01:32.661Z,47.85
2017-01-11T10:02:42.387Z,47.37
2017-01-11T10:03:52.544Z,47.66
2017-01-11T10:05:02.693Z,47.2
2017-01-11T10:06:12.466Z,47.2
2017-01-11T10:07:22.183Z,47.39
2017-01-11T10:08:32.333Z,46.91
2017-01-11T10:09:41.610Z,47.1
2017-01-11T10:10:52.210Z,47.2
2017-01-11T10:12:02.416Z,47.2
2017-01-11T10:13:11.693Z,47.2
2017-01-11T10:14:20.982Z,46.91
2017-01-11T10:15:30.271Z,47.01
2017-01-11T10:16:40.424Z,46.72
2017-01-11T10:17:50.629Z,47.2
2017-01-11T10:19:00.782Z,47.01
2017-01-11T10:20:10.495Z,46.91
2017-01-11T10:21:19.776Z,47.3
2017-01-11T10:22:29.493Z,46.81
2017-01-11T10:23:39.262Z,47.1
2017-01-11T10:24:48.975Z,47.2
2017-01-11T10:25:58.252Z,46.81
2017-01-11T10:27:07.549Z,46.91
2017-01-11T10:28:17.266Z,47.2
2017-01-11T10:29:27.039Z,46.72
2017-01-11T10:30:36.764Z,47.01
2017-01-11T10:31:47.736Z,47.13
2017-01-11T10:32:57.450Z,47.22
2017-01-11T10:34:06.731Z,46.65
2017-01-11T10:35:16.069Z,47.13
2017-01-11T10:36:26.241Z,46.62
2017-01-11T10:37:35.523Z,47.03
2017-01-11T10:38:44.804Z,47.01
2017-01-11T10:39:54.517Z,46.91
2017-01-11T10:41:03.854Z,47.03
2017-01-11T10:42:13.975Z,46.84
2017-01-11T10:43:26.780Z,46.62
2017-01-11T10:44:39.269Z,46.55
2017-01-11T10:45:50.670Z,46.55
2017-01-11T10:47:01.979Z,46.55
2017-01-11T10:48:12.569Z,47.03
2017-01-11T10:49:22.285Z,46.65
2017-01-11T10:50:32.447Z,46.84
2017-01-11T10:51:42.160Z,46.74
2017-01-11T10:52:52.369Z,46.84
2017-01-11T10:54:02.535Z,46.55
2017-01-11T10:55:12.252Z,46.65
2017-01-11T10:56:21.965Z,46.45
2017-01-11T10:57:31.686Z,46.65
2017-01-11T10:58:41.023Z,46.55
2017-01-11T10:59:51.472Z,46.74
2017-01-11T11:01:03.530Z,46.65
2017-01-11T11:02:13.691Z,46.84
2017-01-11T11:03:23.391Z,46.84
2017-01-11T11:04:36.569Z,46.65
2017-01-11T11:05:47.422Z,46.55
2017-01-11T11:06:58.931Z,46.65
2017-01-11T11:08:10.381Z,46.74
2017-01-11T11:09:20.742Z,46.74
2017-01-11T11:10:32.355Z,46.65
2017-01-11T11:11:43.620Z,46.74
2017-01-11T11:12:54.458Z,46.55
2017-01-11T11:14:05.063Z,46.26
2017-01-11T11:15:17.100Z,46.26
2017-01-11T11:16:28.369Z,46.45
2017-01-11T11:17:39.886Z,46.74
2017-01-11T11:18:52.255Z,46.65
2017-01-11T11:20:06.268Z,46.45
2017-01-11T11:21:17.270Z,46.65
2017-01-11T11:22:29.051Z,46.17
2017-01-11T11:23:39.640Z,46.65
2017-01-11T11:24:50.638Z,46.67
2017-01-11T11:26:02.491Z,46.77
2017-01-11T11:27:12.412Z,46.58
2017-01-11T11:28:23.238Z,46.86
2017-01-11T11:29:32.959Z,46.77
2017-01-11T11:30:42.680Z,46.58
2017-01-11T11:31:52.389Z,46.67
2017-01-11T11:33:02.158Z,46.67
2017-01-11T11:34:11.451Z,46.67
2017-01-11T11:35:22.045Z,46.58
2017-01-11T11:36:31.762Z,46.58
2017-01-11T11:37:41.487Z,46.86
2017-01-11T11:38:52.572Z,46.79
2017-01-11T11:40:02.726Z,46.41
2017-01-11T11:41:12.011Z,46.31
2017-01-11T11:42:22.161Z,46.02
2017-01-11T11:43:32.761Z,46.31
2017-01-11T11:44:43.231Z,46.21
2017-01-11T11:45:54.260Z,46.31
2017-01-11T11:47:04.333Z,46.21
2017-01-11T11:48:14.887Z,46.12
2017-01-11T11:49:25.008Z,46.5
2017-01-11T11:50:37.925Z,46.21
2017-01-11T11:51:48.606Z,45.92
2017-01-11T11:52:58.411Z,46.31
2017-01-11T11:54:10.841Z,45.92
2017-01-11T11:55:21.346Z,46.12
2017-01-11T11:56:31.447Z,46.21
2017-01-11T11:57:41.312Z,45.95
2017-01-11T11:58:51.146Z,45.76
2017-01-11T12:00:01.627Z,45.95
2017-01-11T12:01:13.183Z,46.04
2017-01-11T12:02:24.141Z,45.85
2017-01-11T12:03:34.847Z,45.95
2017-01-11T12:04:45.360Z,45.85
2017-01-11T12:05:58.497Z,45.56
2017-01-11T12:07:10.018Z,45.76
2017-01-11T12:08:21.608Z,45.56
2017-01-11T12:09:32.769Z,45.47
2017-01-11T12:10:42.894Z,45.76
2017-01-11T12:11:54.279Z,45.76
2017-01-11T12:13:05.064Z,45.56
2017-01-11T12:14:16.394Z,45.59
2017-01-11T12:15:27.627Z,45.68
2017-01-11T12:16:38.140Z,45.59
2017-01-11T12:17:48.313Z,45.78
2017-01-11T12:18:58.027Z,45.49
2017-01-11T12:20:09.164Z,45.49
2017-01-11T12:21:20.721Z,45.1
2017-01-11T12:22:31.242Z,45.01
2017-01-11T12:23:44.591Z,44.91
2017-01-11T12:24:55.369Z,45.1
2017-01-11T12:26:06.950Z,44.91
2017-01-11T12:27:17.388Z,44.91
2017-01-11T12:28:28.568Z,45.1
2017-01-11T12:29:38.878Z,44.82
2017-01-11T12:30:48.970Z,45.01
2017-01-11T12:31:59.113Z,45.2
2017-01-11T12:33:09.021Z,45.29
2017-01-11T12:34:18.854Z,45.2
2017-01-11T12:35:29.024Z,45.39
2017-01-11T12:36:38.489Z,45.29
2017-01-11T12:37:49.926Z,45.32
2017-01-11T12:39:00.392Z,45.2
2017-01-11T12:40:10.117Z,45.29
2017-01-11T12:41:19.994Z,45.13
2017-01-11T12:42:30.971Z,45.2
2017-01-11T12:43:41.133Z,45.42
2017-01-11T12:44:51.265Z,45.42
2017-01-11T12:46:01.403Z,45.13
2017-01-11T12:47:12.192Z,45.13
2017-01-11T12:48:23.225Z,45.42
2017-01-11T12:49:33.102Z,45.42
2017-01-11T12:50:42.708Z,45.32
2017-01-11T12:51:53.249Z,45.32
2017-01-11T12:53:03.658Z,45.51
2017-01-11T12:54:15.519Z,45.42
2017-01-11T12:55:25.740Z,45.32
2017-01-11T12:56:36.198Z,45.22
2017-01-11T12:57:47.563Z,44.84
2017-01-11T12:58:58.612Z,45.03
2017-01-11T13:00:08.721Z,45.03
2017-01-11T13:01:18.486Z,45.03
2017-01-11T13:02:29.011Z,45.13
2017-01-11T13:03:40.028Z,45.15
2017-01-11T13:04:52.322Z,45.13
2017-01-11T13:06:04.051Z,45.22
2017-01-11T13:07:15.484Z,45.03
2017-01-11T13:08:26.241Z,45.25
2017-01-11T13:09:36.855Z,44.84
2017-01-11T13:10:48.664Z,45.03
2017-01-11T13:12:00.081Z,44.93
2017-01-11T13:13:11.102Z,45.22
2017-01-11T13:14:22.147Z,45.22
2017-01-11T13:15:33.408Z,45.03
2017-01-11T13:16:44.414Z,45.22
2017-01-11T13:17:55.251Z,45.13
2017-01-11T13:19:07.755Z,45.22
2017-01-11T13:20:18.825Z,45.13
2017-01-11T13:21:29.843Z,45.13
2017-01-11T13:22:40.620Z,45.22
2017-01-11T13:23:50.349Z,45.13
2017-01-11T13:25:00.698Z,45.22
2017-01-11T13:26:12.148Z,45.13
2017-01-11T13:27:22.820Z,45.03
2017-01-11T13:28:34.022Z,45.03
2017-01-11T13:29:45.503Z,45.13
2017-01-11T13:30:57.084Z,44.84
2017-01-11T13:32:10.150Z,45.2
2017-01-11T13:33:20.786Z,45.22
2017-01-11T13:34:31.192Z,45.32
2017-01-11T13:35:41.772Z,45.01
2017-01-11T13:36:53.570Z,45.9
2017-01-11T13:38:05.187Z,45.68
2017-01-11T13:39:15.880Z,45.87
2017-01-11T13:40:28.282Z,45.87
2017-01-11T13:41:39.135Z,45.68
2017-01-11T13:42:49.300Z,45.8
2017-01-11T13:43:58.633Z,45.49
2017-01-11T13:45:09.858Z,45.68
2017-01-11T13:46:22.964Z,45.49
2017-01-11T13:47:35.184Z,45.78
2017-01-11T13:48:46.154Z,45.68
2017-01-11T13:49:57.463Z,45.78
2017-01-11T13:51:08.632Z,45.68
2017-01-11T13:52:20.713Z,45.59
2017-01-11T13:53:32.850Z,45.68
2017-01-11T13:54:44.388Z,46.06
2017-01-11T13:55:56.033Z,45.59
2017-01-11T13:57:06.486Z,45.87
2017-01-11T13:58:17.320Z,45.97
2017-01-11T13:59:27.844Z,45.95
2017-01-11T14:00:39.277Z,45.87
2017-01-11T14:01:50.183Z,46.16
2017-01-11T14:03:00.928Z,46.04
2017-01-11T14:04:10.757Z,46.23
2017-01-11T14:05:20.306Z,46.23
2017-01-11T14:06:31.855Z,46.33
2017-01-11T14:07:43.500Z,46.04
2017-01-11T14:08:54.930Z,46.33
2017-01-11T14:10:05.695Z,46.33
2017-01-11T14:11:16.083Z,46.81
2017-01-11T14:12:27.569Z,45.95
2017-01-11T14:13:39.894Z,46.33
2017-01-11T14:14:51.219Z,46.33
2017-01-11T14:16:02.009Z,46.33
2017-01-11T14:17:12.934Z,46.04
2017-01-11T14:18:24.375Z,46.33
2017-01-11T14:19:36.192Z,46.53
2017-01-11T14:20:47.578Z,46.33
2017-01-11T14:21:58.778Z,46.62
2017-01-11T14:23:09.419Z,46.53
2017-01-11T14:24:20.240Z,46.33
2017-01-11T14:25:30.454Z,46.14
2017-01-11T14:26:40.179Z,46.53
2017-01-11T14:27:50.332Z,46.23
2017-01-11T14:28:59.609Z,46.33
2017-01-11T14:30:10.206Z,46.43
2017-01-11T14:31:19.556Z,46.33
2017-01-11T14:32:30.406Z,46.33
2017-01-11T14:33:41.722Z,46.14
2017-01-11T14:34:52.571Z,46.33
2017-01-11T14:36:04.836Z,47.2
2017-01-11T14:37:16.617Z,46.91
2017-01-11T14:38:26.479Z,46.72
2017-01-11T14:39:37.264Z,46.72
2017-01-11T14:40:48.129Z,46.62
2017-01-11T14:41:59.067Z,46.43
2017-01-11T14:43:09.279Z,46.91
2017-01-11T14:44:19.860Z,47
2017-01-11T14:45:29.930Z,47.1
2017-01-11T14:46:40.639Z,47.1
2017-01-11T14:47:51.364Z,46.72
2017-01-11T14:49:03.673Z,46.81
2017-01-11T14:50:14.106Z,47.1
2017-01-11T14:51:23.971Z,47.2
2017-01-11T14:52:33.697Z,47.2
2017-01-11T14:53:43.742Z,47.2
2017-01-11T14:54:55.455Z,47.2
2017-01-11T14:56:06.716Z,46.98
2017-01-11T14:57:17.197Z,47
2017-01-11T14:58:28.130Z,47.3
2017-01-11T14:59:37.976Z,47.2
2017-01-11T15:00:50.169Z,47.49
2017-01-11T15:02:01.058Z,47.1
2017-01-11T15:03:11.839Z,47.49
2017-01-11T15:04:22.302Z,47.68
2017-01-11T15:05:34.485Z,47.68
2017-01-11T15:06:45.251Z,47.58
2017-01-11T15:07:55.120Z,47.39